Airfield :
LOGIN :

Register | Disclaimer

   EN    FR    IT 

 










Legend :    VFR   Marginal VFR   IFR   Intensive IFR   Very Intensive IFR
Visi :
Ceiling :
>= 8 km
>= 3000ft
5 to 8 km
1000 to 3000 ft
1500m to 5 km
500 to 1000 ft
800 to 1500m
200 to 500 ft
< 800m
< 200 ft
Symbols :   Thunderstorms  Fog  Heavy snow  Heavy precipitations  Wind > 20 kt
SIGMETs :     Misc.  Thunderstorms  Icing  Turbulence  Mountain Waves  Volcanic Ashes







- Airport Elevation : 36 ft
- IATA code : LTQ
- Download approach charts


LFAT - Le Touquet

CURRENT METAR :
  • 182100Z AUTO 08013KT CAVOK 04/M03 Q1023

EXPIRED METARs :
  • 182030Z AUTO 09013KT CAVOK 04/M02 Q1023
  • 182000Z AUTO 08014KT CAVOK 04/M02 Q1023
  • 181930Z AUTO 08011KT CAVOK 04/M01 Q1023
  • 181900Z AUTO 08011KT CAVOK 05/M01 Q1023
  • 181830Z AUTO 07012KT CAVOK 06/M00 Q1023

TAF TAF LFAT
Valid from the 18 at 15:00 until the 19 at 00:00 UTC


181400Z 1815/1824 08013KT CAVOK
ATIS : +33 3 21 06 62 84
No reported NOTAMs for that airfield.
1 SIGMET reported for the Paris FIR (LFFF) :
 
Severe turbulence
LFFF SIGMET 2 VALID 181700/182100 LFPW
LFFF PARIS FIR/UIR SEV TURB FCST S OF LINE N4815 E00515 - N4845 W00015 FL320/380 MOV SW 15KT NC=



MET'MAP, your aeronautical weather chart ! - Copyright ORBIFLY December 2007 - Disclaimer

ORBIFLY MET'MAP TEAM :

Programming & Development : Alexandra Zaïnal
Concept & Development : Baudouin d'Aumeries
Co-Development & Prog : Marc-Olivier Méhu
Technical & hardware support : Manuel Goepfert

Contact : metmap@orbifly.com




SOURCES & CREDITS :

   NOAA